createdAt,value
2023-05-18T00:02:16.626Z,2.80
2023-05-18T00:04:47.302Z,2.97
2023-05-18T00:07:17.284Z,3.40
2023-05-18T00:09:47.220Z,2.50
2023-05-18T00:12:19.734Z,2.43
2023-05-18T00:14:49.629Z,2.20
2023-05-18T00:17:21.108Z,2.83
2023-05-18T00:19:51.008Z,2.93
2023-05-18T00:22:21.399Z,2.67
2023-05-18T00:24:51.644Z,2.60
2023-05-18T00:27:24.329Z,2.37
2023-05-18T00:29:54.234Z,3.17
2023-05-18T00:32:24.241Z,2.83
2023-05-18T00:34:55.169Z,2.73
2023-05-18T00:37:26.474Z,3.10
2023-05-18T00:39:56.630Z,2.80
2023-05-18T00:42:29.123Z,3.30
2023-05-18T00:44:59.421Z,3.13
2023-05-18T00:47:29.337Z,2.70
2023-05-18T00:49:59.537Z,2.47
2023-05-18T00:52:33.002Z,3.10
2023-05-18T00:55:03.486Z,2.20
2023-05-18T00:57:36.853Z,3.40
2023-05-18T01:00:11.119Z,2.80
2023-05-18T01:02:43.184Z,3.30
2023-05-18T01:05:13.847Z,3.00
2023-05-18T01:07:44.995Z,2.90
2023-05-18T01:10:17.911Z,2.60
2023-05-18T01:12:52.698Z,2.57
2023-05-18T01:15:26.313Z,2.47
2023-05-18T01:18:17.701Z,2.37
2023-05-18T01:20:52.343Z,3.60
2023-05-18T01:23:57.162Z,3.43
2023-05-18T01:26:38.115Z,2.60
2023-05-18T01:29:12.482Z,2.40
2023-05-18T01:31:43.035Z,1.90
2023-05-18T01:34:12.993Z,2.50
2023-05-18T01:36:43.958Z,2.87
2023-05-18T01:39:15.380Z,2.50
2023-05-18T01:41:54.769Z,3.03
2023-05-18T01:44:29.618Z,2.57
2023-05-18T01:47:05.687Z,2.43
2023-05-18T01:49:40.367Z,2.97
2023-05-18T01:52:15.138Z,2.57
2023-05-18T01:54:48.654Z,5.00
2023-05-18T01:57:23.916Z,2.73
2023-05-18T01:59:54.635Z,2.47
2023-05-18T02:02:25.141Z,2.20
2023-05-18T02:04:56.416Z,2.87
2023-05-18T02:07:26.676Z,3.07
2023-05-18T02:09:56.900Z,2.07
2023-05-18T02:12:29.588Z,2.63
2023-05-18T02:15:01.243Z,2.70
2023-05-18T02:17:31.223Z,1.97
2023-05-18T02:20:01.608Z,2.17
2023-05-18T02:22:31.563Z,2.37
2023-05-18T02:25:01.830Z,2.27
2023-05-18T02:27:36.246Z,3.00
2023-05-18T02:30:08.985Z,2.00
2023-05-18T02:32:43.178Z,2.27
2023-05-18T02:35:13.451Z,3.20
2023-05-18T02:37:44.665Z,2.40
2023-05-18T02:40:16.346Z,2.77
2023-05-18T02:42:49.634Z,2.37
2023-05-18T02:45:21.089Z,2.00
2023-05-18T02:47:51.387Z,2.37
2023-05-18T02:50:21.363Z,3.10
2023-05-18T02:52:52.178Z,2.40
2023-05-18T02:55:22.189Z,2.27
2023-05-18T02:58:13.892Z,2.10
2023-05-18T03:01:13.049Z,1.90
2023-05-18T03:03:49.592Z,1.83
2023-05-18T03:06:23.484Z,2.10
2023-05-18T03:08:54.650Z,2.40
2023-05-18T03:11:29.339Z,2.50
2023-05-18T03:14:02.014Z,3.00
2023-05-18T03:16:32.468Z,3.03
2023-05-18T03:19:03.462Z,1.90
2023-05-18T03:21:38.970Z,3.20
2023-05-18T03:24:10.230Z,2.27
2023-05-18T03:26:44.548Z,2.40
2023-05-18T03:29:17.920Z,2.17
2023-05-18T03:31:48.094Z,2.20
2023-05-18T03:34:18.913Z,2.50
2023-05-18T03:36:48.916Z,2.50
2023-05-18T03:39:19.576Z,2.43
2023-05-18T03:41:49.622Z,2.50
2023-05-18T03:44:22.485Z,3.10
2023-05-18T03:46:52.714Z,1.93
2023-05-18T03:49:23.159Z,3.03
2023-05-18T03:51:54.754Z,2.20
2023-05-18T03:54:24.906Z,3.67
2023-05-18T03:56:54.983Z,2.60
2023-05-18T03:59:27.488Z,2.57
2023-05-18T04:01:57.509Z,2.37
2023-05-18T04:04:27.635Z,3.10
2023-05-18T04:06:58.198Z,2.90
2023-05-18T04:09:28.335Z,2.87
2023-05-18T04:11:58.707Z,2.30
2023-05-18T04:14:33.272Z,2.83
2023-05-18T04:17:06.960Z,3.27
2023-05-18T04:19:37.978Z,2.20
2023-05-18T04:22:10.353Z,3.83
2023-05-18T04:24:41.811Z,2.80
2023-05-18T04:27:13.122Z,3.50
2023-05-18T04:29:47.451Z,2.37
2023-05-18T04:32:18.723Z,2.50
2023-05-18T04:34:49.785Z,2.70
2023-05-18T04:37:20.053Z,2.90
2023-05-18T04:39:51.802Z,3.27
2023-05-18T04:42:22.623Z,4.17
2023-05-18T04:44:55.719Z,2.63
2023-05-18T04:47:26.718Z,3.70
2023-05-18T04:49:57.169Z,4.00
2023-05-18T04:52:30.913Z,3.80
2023-05-18T04:55:01.224Z,3.40
2023-05-18T04:57:31.504Z,3.63
2023-05-18T05:00:10.166Z,2.40
2023-05-18T05:02:40.273Z,2.57
2023-05-18T05:05:12.059Z,3.00
2023-05-18T05:07:42.188Z,4.20
2023-05-18T05:10:13.323Z,3.60
2023-05-18T05:12:44.723Z,2.27
2023-05-18T05:15:17.727Z,2.90
2023-05-18T05:17:49.660Z,3.20
2023-05-18T05:20:20.379Z,2.60
2023-05-18T05:22:50.737Z,3.00
2023-05-18T05:25:26.003Z,2.50
2023-05-18T05:27:56.857Z,2.13
2023-05-18T05:30:30.034Z,2.67
2023-05-18T05:33:00.781Z,3.33
2023-05-18T05:35:33.568Z,2.47
2023-05-18T05:38:03.927Z,3.10
2023-05-18T05:40:35.587Z,3.10
2023-05-18T05:43:07.394Z,2.80
2023-05-18T05:45:40.272Z,3.00
2023-05-18T05:48:13.762Z,2.83
2023-05-18T05:50:44.105Z,2.83
2023-05-18T05:53:17.951Z,2.33
2023-05-18T05:55:48.336Z,2.60
2023-05-18T05:58:20.933Z,2.20
2023-05-18T06:00:57.268Z,2.33
2023-05-18T06:03:27.438Z,2.43
2023-05-18T06:05:59.191Z,2.43
2023-05-18T06:08:31.721Z,2.77
2023-05-18T06:11:02.068Z,2.90
2023-05-18T06:13:33.126Z,2.57
2023-05-18T06:16:07.498Z,3.37
2023-05-18T06:18:38.374Z,2.33
2023-05-18T06:21:09.244Z,2.37
2023-05-18T06:23:41.975Z,2.40
2023-05-18T06:26:32.498Z,2.00
2023-05-18T06:29:29.286Z,2.40
2023-05-18T06:32:22.598Z,2.20
2023-05-18T06:34:56.957Z,2.10
2023-05-18T06:37:27.069Z,2.20
2023-05-18T06:39:57.406Z,1.90
2023-05-18T06:42:27.848Z,2.53
2023-05-18T06:45:16.276Z,2.10
2023-05-18T06:47:58.286Z,1.97
2023-05-18T06:50:28.379Z,2.60
2023-05-18T06:52:58.576Z,2.57
2023-05-18T06:55:28.750Z,1.90
2023-05-18T06:57:59.775Z,2.40
2023-05-18T07:00:30.580Z,1.77
2023-05-18T07:03:03.761Z,2.17
2023-05-18T07:05:35.056Z,2.70
2023-05-18T07:08:07.610Z,1.80
2023-05-18T07:10:38.810Z,1.83
2023-05-18T07:13:08.793Z,1.93
2023-05-18T07:15:39.019Z,2.60
2023-05-18T07:18:11.636Z,1.93
2023-05-18T07:20:41.979Z,1.90
2023-05-18T07:23:12.333Z,1.90
2023-05-18T07:25:42.344Z,1.90
2023-05-18T07:28:12.531Z,2.10
2023-05-18T07:30:42.566Z,2.10
2023-05-18T07:33:15.165Z,1.63
2023-05-18T07:35:45.321Z,1.67
2023-05-18T07:38:15.761Z,2.47
2023-05-18T07:40:45.945Z,1.90
2023-05-18T07:43:16.611Z,1.93
2023-05-18T07:45:46.575Z,1.80
2023-05-18T07:48:19.244Z,1.33
2023-05-18T07:50:49.155Z,1.87
2023-05-18T07:53:19.416Z,2.37
2023-05-18T07:55:50.202Z,1.90
2023-05-18T07:58:20.579Z,1.90
2023-05-18T08:00:51.415Z,1.80
2023-05-18T08:03:24.147Z,2.10
2023-05-18T08:05:54.200Z,2.20
2023-05-18T08:11:48.913Z,2.63
2023-05-18T08:14:18.782Z,2.50
2023-05-18T08:16:48.724Z,1.93
2023-05-18T08:19:21.441Z,2.20
2023-05-18T08:21:51.976Z,2.50
2023-05-18T08:24:22.140Z,1.80
2023-05-18T08:26:52.703Z,2.20
2023-05-18T08:29:22.731Z,2.07
2023-05-18T08:31:54.604Z,2.40
2023-05-18T08:34:27.352Z,1.77
2023-05-18T08:36:57.226Z,2.07
2023-05-18T08:39:27.638Z,2.20
2023-05-18T08:42:04.097Z,1.93
2023-05-18T08:44:39.121Z,2.50
2023-05-18T08:47:13.255Z,2.13
2023-05-18T08:49:46.038Z,2.87
2023-05-18T08:52:21.878Z,2.47
2023-05-18T08:54:55.914Z,2.00
2023-05-18T08:57:26.760Z,1.77
2023-05-18T08:59:58.934Z,1.97
2023-05-18T09:02:29.820Z,2.50
2023-05-18T09:05:02.609Z,3.17
2023-05-18T09:07:33.007Z,2.33
2023-05-18T09:10:03.883Z,2.30
2023-05-18T09:12:35.581Z,2.47
2023-05-18T09:15:06.266Z,2.60
2023-05-18T09:17:36.563Z,2.63
2023-05-18T09:20:10.781Z,2.20
2023-05-18T09:22:41.227Z,2.33
2023-05-18T09:25:12.763Z,2.30
2023-05-18T09:27:42.953Z,3.40
2023-05-18T09:30:14.755Z,2.00
2023-05-18T09:32:45.308Z,2.50
2023-05-18T09:35:18.752Z,3.43
2023-05-18T09:37:48.668Z,2.63
2023-05-18T09:40:20.857Z,2.40
2023-05-18T09:42:50.908Z,2.50
2023-05-18T09:45:24.198Z,2.20
2023-05-18T09:47:54.750Z,1.70
2023-05-18T09:50:28.400Z,2.83
2023-05-18T09:52:58.612Z,2.80
2023-05-18T09:55:28.933Z,2.03
2023-05-18T09:57:59.884Z,2.70
2023-05-18T10:00:29.809Z,3.00
2023-05-18T10:03:01.259Z,2.57
2023-05-18T10:05:36.332Z,2.10
2023-05-18T10:08:07.980Z,2.20
2023-05-18T10:10:44.628Z,2.30
2023-05-18T10:13:19.167Z,2.13
2023-05-18T10:15:54.383Z,2.90
2023-05-18T10:18:26.248Z,2.43
2023-05-18T10:21:00.490Z,1.97
2023-05-18T10:23:33.347Z,2.27
2023-05-18T10:26:03.973Z,2.13
2023-05-18T10:28:40.790Z,2.30
2023-05-18T10:31:11.529Z,2.43
2023-05-18T10:33:41.615Z,2.20
2023-05-18T10:36:15.226Z,2.73
2023-05-18T10:38:47.347Z,2.37
2023-05-18T10:41:18.153Z,2.50
2023-05-18T10:43:49.009Z,2.37
2023-05-18T10:46:21.662Z,2.30
2023-05-18T10:48:54.254Z,2.17
2023-05-18T10:51:29.069Z,2.10
2023-05-18T10:54:12.394Z,2.03
2023-05-18T10:56:45.828Z,2.30
2023-05-18T10:59:18.557Z,2.07
2023-05-18T11:01:49.774Z,2.40
2023-05-18T11:04:25.228Z,2.60
2023-05-18T11:07:02.488Z,2.20
2023-05-18T11:09:33.374Z,2.40
2023-05-18T11:12:03.584Z,2.10
2023-05-18T11:14:37.037Z,3.27
2023-05-18T11:17:24.726Z,2.00
2023-05-18T11:20:16.570Z,2.13
2023-05-18T11:22:52.427Z,1.80
2023-05-18T11:25:41.764Z,2.40
2023-05-18T11:28:14.492Z,2.40
2023-05-18T11:30:53.535Z,2.60
2023-05-18T11:33:28.559Z,2.27
2023-05-18T11:36:03.996Z,2.60
2023-05-18T11:38:56.331Z,2.50
2023-05-18T11:41:39.583Z,2.80
2023-05-18T11:44:18.670Z,2.50
2023-05-18T11:46:59.396Z,2.40
2023-05-18T11:49:33.026Z,2.77
2023-05-18T11:52:12.216Z,3.00
2023-05-18T11:54:48.180Z,2.07
2023-05-18T11:57:19.391Z,2.23
2023-05-18T11:59:50.797Z,2.30
2023-05-18T12:02:25.406Z,2.23
2023-05-18T12:04:57.278Z,2.47
2023-05-18T12:07:28.458Z,2.40
2023-05-18T12:10:04.467Z,1.83
2023-05-18T12:12:36.016Z,2.30
2023-05-18T12:15:08.772Z,2.50
2023-05-18T12:17:43.304Z,2.80
2023-05-18T12:20:14.708Z,2.27
2023-05-18T12:22:46.146Z,2.20
2023-05-18T12:25:18.789Z,2.47
2023-05-18T12:27:51.011Z,2.17
2023-05-18T12:30:22.209Z,2.37
2023-05-18T12:32:54.963Z,2.10
2023-05-18T12:35:25.702Z,2.27
2023-05-18T12:37:58.604Z,1.80
2023-05-18T12:40:44.564Z,2.27
2023-05-18T12:43:15.858Z,1.90
2023-05-18T12:45:47.494Z,2.33
2023-05-18T12:48:17.771Z,2.47
2023-05-18T12:50:51.565Z,1.87
2023-05-18T12:53:22.129Z,2.00
2023-05-18T12:56:10.204Z,2.67
2023-05-18T12:58:40.843Z,1.93
2023-05-18T13:01:11.858Z,2.37
2023-05-18T13:03:43.478Z,2.23
2023-05-18T13:06:13.550Z,3.10
2023-05-18T13:08:43.948Z,2.23
2023-05-18T13:11:17.017Z,1.90
2023-05-18T13:14:03.613Z,2.00
2023-05-18T13:16:34.089Z,2.40
2023-05-18T13:19:05.560Z,2.20
2023-05-18T13:21:36.274Z,1.83
2023-05-18T13:24:06.962Z,2.03
2023-05-18T13:26:39.712Z,2.17
2023-05-18T13:29:10.578Z,2.50
2023-05-18T13:31:40.768Z,1.77
2023-05-18T13:34:11.851Z,1.97
2023-05-18T13:36:41.866Z,3.10
2023-05-18T13:39:11.813Z,1.90
2023-05-18T13:41:44.340Z,2.33
2023-05-18T13:44:16.218Z,2.30
2023-05-18T13:46:46.238Z,2.00
2023-05-18T13:49:16.213Z,2.07
2023-05-18T13:51:46.773Z,2.10
2023-05-18T13:54:16.922Z,2.10
2023-05-18T13:56:49.966Z,2.07
2023-05-18T13:59:19.960Z,2.13
2023-05-18T14:01:50.791Z,1.40
2023-05-18T14:04:20.758Z,1.70
2023-05-18T14:06:54.448Z,2.13
2023-05-18T14:09:24.873Z,1.83
2023-05-18T14:11:58.557Z,1.87
2023-05-18T14:14:28.586Z,1.67
2023-05-18T14:16:58.979Z,2.30
2023-05-18T14:19:29.059Z,1.97
2023-05-18T14:21:59.230Z,2.07
2023-05-18T14:24:29.274Z,2.40
2023-05-18T14:27:01.843Z,2.30
2023-05-18T14:29:35.892Z,1.90
2023-05-18T14:32:06.586Z,1.90
2023-05-18T14:34:36.783Z,2.20
2023-05-18T14:37:07.572Z,1.90
2023-05-18T14:39:38.350Z,2.50
2023-05-18T14:42:11.316Z,2.30
2023-05-18T14:44:41.275Z,1.93
2023-05-18T14:47:11.343Z,2.13
2023-05-18T14:49:41.345Z,1.80
2023-05-18T14:52:11.486Z,2.23
2023-05-18T14:54:42.853Z,2.10
2023-05-18T14:57:15.713Z,2.90
2023-05-18T14:59:45.720Z,1.70
2023-05-18T15:02:16.016Z,2.10
2023-05-18T15:04:46.314Z,2.03
2023-05-18T15:07:16.299Z,2.00
2023-05-18T15:09:46.272Z,1.90
2023-05-18T15:12:21.467Z,2.07
2023-05-18T15:14:51.398Z,2.23
2023-05-18T15:17:21.415Z,2.50
2023-05-18T15:19:51.529Z,2.17
2023-05-18T15:22:23.294Z,1.80
2023-05-18T15:24:53.213Z,1.90
2023-05-18T15:27:26.477Z,3.00
2023-05-18T15:29:57.119Z,6.00
2023-05-18T15:32:29.211Z,2.47
2023-05-18T15:35:00.221Z,2.07
2023-05-18T15:37:30.183Z,1.83
2023-05-18T15:40:00.625Z,2.90
2023-05-18T15:42:34.138Z,7.10
2023-05-18T15:45:05.229Z,3.50
2023-05-18T15:47:35.777Z,3.30
2023-05-18T15:50:06.946Z,2.10
2023-05-18T15:52:37.020Z,2.50
2023-05-18T15:55:08.204Z,1.90
2023-05-18T15:57:40.786Z,3.47
2023-05-18T16:00:12.264Z,4.10
2023-05-18T16:02:42.297Z,2.47
2023-05-18T16:05:12.568Z,4.33
2023-05-18T16:07:42.726Z,2.27
2023-05-18T16:10:14.526Z,3.50
2023-05-18T16:12:47.528Z,2.47
2023-05-18T16:15:20.296Z,1.97
2023-05-18T16:17:50.930Z,2.00
2023-05-18T16:20:21.284Z,2.50
2023-05-18T16:22:51.666Z,3.30
2023-05-18T16:25:21.715Z,2.40
2023-05-18T16:27:54.650Z,2.30
2023-05-18T16:30:24.655Z,5.37
2023-05-18T16:32:55.171Z,4.17
2023-05-18T16:35:25.793Z,4.30
2023-05-18T16:37:55.756Z,3.20
2023-05-18T16:40:26.381Z,2.53
2023-05-18T16:42:59.029Z,3.40
2023-05-18T16:45:29.493Z,2.47
2023-05-18T16:48:00.868Z,4.17
2023-05-18T16:50:31.165Z,6.70
2023-05-18T16:53:01.467Z,9.70
2023-05-18T16:55:31.647Z,3.80
2023-05-18T16:58:05.057Z,3.20
2023-05-18T17:00:35.784Z,3.67
2023-05-18T17:03:05.996Z,4.33
2023-05-18T17:05:37.144Z,4.90
2023-05-18T17:08:07.477Z,2.90
2023-05-18T17:10:37.450Z,2.47
2023-05-18T17:13:10.371Z,2.97
2023-05-18T17:15:40.396Z,1.90
2023-05-18T17:18:10.421Z,1.93
2023-05-18T17:20:40.381Z,1.67
2023-05-18T17:23:12.543Z,1.70
2023-05-18T17:25:42.474Z,2.20
2023-05-18T17:28:18.990Z,3.40
2023-05-18T17:30:48.947Z,2.40
2023-05-18T17:33:18.875Z,2.07
2023-05-18T17:35:49.074Z,2.53
2023-05-18T17:38:19.235Z,2.30
2023-05-18T17:40:49.450Z,2.70
2023-05-18T17:43:22.022Z,3.30
2023-05-18T17:45:52.260Z,4.77
2023-05-18T17:48:22.531Z,4.07
2023-05-18T17:50:53.305Z,2.23
2023-05-18T17:53:23.448Z,2.60
2023-05-18T17:55:53.631Z,2.90
2023-05-18T17:58:26.176Z,2.17
2023-05-18T18:00:56.473Z,2.50
2023-05-18T18:03:26.594Z,3.37
2023-05-18T18:05:56.800Z,2.60
2023-05-18T18:08:28.267Z,3.20
2023-05-18T18:10:58.730Z,6.07
2023-05-18T18:13:31.783Z,2.60
2023-05-18T18:16:01.761Z,2.93
2023-05-18T18:18:32.265Z,5.00
2023-05-18T18:21:02.210Z,3.07
2023-05-18T18:23:32.640Z,3.33
2023-05-18T18:26:02.657Z,6.33
2023-05-18T18:28:36.213Z,13.60
2023-05-18T18:31:06.565Z,9.40
2023-05-18T18:33:36.851Z,6.50
2023-05-18T18:36:07.782Z,2.90
2023-05-18T18:38:38.024Z,6.47
2023-05-18T18:41:07.989Z,6.70
2023-05-18T18:43:41.251Z,4.90
2023-05-18T18:46:11.302Z,4.83
2023-05-18T18:48:41.427Z,5.10
2023-05-18T18:51:11.409Z,5.00
2023-05-18T18:53:41.405Z,7.33
2023-05-18T18:56:11.914Z,8.00
2023-05-18T18:58:44.553Z,5.57
2023-05-18T19:01:14.936Z,4.10
2023-05-18T19:03:44.887Z,3.87
2023-05-18T19:06:15.313Z,5.60
2023-05-18T19:08:45.316Z,3.20
2023-05-18T19:11:16.152Z,4.47
2023-05-18T19:13:52.070Z,2.73
2023-05-18T19:16:22.157Z,3.33
2023-05-18T19:18:52.275Z,2.20
2023-05-18T19:21:25.077Z,2.50
2023-05-18T19:23:55.079Z,2.40
2023-05-18T19:26:25.742Z,1.73
2023-05-18T19:28:58.261Z,1.90
2023-05-18T19:31:31.787Z,2.67
2023-05-18T19:34:02.817Z,2.30
2023-05-18T19:36:32.790Z,2.63
2023-05-18T19:39:02.740Z,2.07
2023-05-18T19:41:32.687Z,2.80
2023-05-18T19:44:05.792Z,2.60
2023-05-18T19:46:36.047Z,2.23
2023-05-18T19:49:06.834Z,1.97
2023-05-18T19:51:37.317Z,2.60
2023-05-18T19:54:07.740Z,2.87
2023-05-18T19:56:38.143Z,2.20
2023-05-18T19:59:10.675Z,2.60
2023-05-18T20:01:41.455Z,3.03
2023-05-18T20:04:11.717Z,2.60
2023-05-18T20:06:42.538Z,2.33
2023-05-18T20:09:12.932Z,2.47
2023-05-18T20:11:43.372Z,2.43
2023-05-18T20:14:16.023Z,2.90
2023-05-18T20:16:46.472Z,2.30
2023-05-18T20:19:18.237Z,3.20
2023-05-18T20:21:50.153Z,2.40
2023-05-18T20:24:20.475Z,2.40
2023-05-18T20:26:51.011Z,2.63
2023-05-18T20:29:23.745Z,2.50
2023-05-18T20:31:54.916Z,2.60
2023-05-18T20:34:25.155Z,2.60
2023-05-18T20:36:55.163Z,2.60
2023-05-18T20:39:26.538Z,2.87
2023-05-18T20:41:58.814Z,3.13
2023-05-18T20:44:31.796Z,3.10
2023-05-18T20:47:01.839Z,2.60
2023-05-18T20:49:32.453Z,2.67
2023-05-18T20:52:02.426Z,2.70
2023-05-18T20:54:32.334Z,2.40
2023-05-18T20:57:03.280Z,2.47
2023-05-18T20:59:35.936Z,2.60
2023-05-18T21:02:06.190Z,2.70
2023-05-18T21:04:36.275Z,2.73
2023-05-18T21:07:06.953Z,2.30
2023-05-18T21:09:37.133Z,2.40
2023-05-18T21:12:09.245Z,3.17
2023-05-18T21:14:41.773Z,3.00
2023-05-18T21:17:12.218Z,2.40
2023-05-18T21:19:42.321Z,2.50
2023-05-18T21:22:13.638Z,2.10
2023-05-18T21:24:43.772Z,2.20
2023-05-18T21:27:13.882Z,2.87
2023-05-18T21:29:46.459Z,2.73
2023-05-18T21:32:16.646Z,3.03
2023-05-18T21:34:47.009Z,2.47
2023-05-18T21:37:17.098Z,3.03
2023-05-18T21:39:47.260Z,2.40
2023-05-18T21:42:17.261Z,2.60
2023-05-18T21:44:50.236Z,2.53
2023-05-18T21:47:20.180Z,2.90
2023-05-18T21:49:50.188Z,2.47
2023-05-18T21:52:20.158Z,1.90
2023-05-18T21:54:50.231Z,2.90
2023-05-18T21:57:20.244Z,2.30
2023-05-18T21:59:52.773Z,2.80
2023-05-18T22:02:22.882Z,3.00
2023-05-18T22:04:52.887Z,2.60
2023-05-18T22:07:23.715Z,1.90
2023-05-18T22:09:53.870Z,2.17
2023-05-18T22:12:24.583Z,2.50
2023-05-18T22:14:57.352Z,3.20
2023-05-18T22:17:27.330Z,2.40
2023-05-18T22:19:58.349Z,2.87
2023-05-18T22:22:30.880Z,2.40
2023-05-18T22:25:01.322Z,2.47
2023-05-18T22:27:31.718Z,2.33
2023-05-18T22:30:04.261Z,2.07
2023-05-18T22:32:34.369Z,2.43
2023-05-18T22:35:05.290Z,2.47
2023-05-18T22:37:36.455Z,2.60
2023-05-18T22:40:07.148Z,2.13
2023-05-18T22:42:37.071Z,2.27
2023-05-18T22:45:12.030Z,2.83
2023-05-18T22:47:45.320Z,2.13
2023-05-18T22:50:15.362Z,2.30
2023-05-18T22:52:46.068Z,2.30
2023-05-18T22:55:16.341Z,2.00
2023-05-18T22:57:47.713Z,1.83
2023-05-18T23:00:21.256Z,2.10
2023-05-18T23:02:53.184Z,2.10
2023-05-18T23:05:23.383Z,2.00
2023-05-18T23:07:53.397Z,2.50
2023-05-18T23:10:23.782Z,2.50
2023-05-18T23:12:55.812Z,2.33
2023-05-18T23:15:28.644Z,2.40
2023-05-18T23:17:59.460Z,1.87
2023-05-18T23:20:29.649Z,1.80
2023-05-18T23:23:00.245Z,2.50
2023-05-18T23:25:31.554Z,2.13
2023-05-18T23:28:01.751Z,1.97
2023-05-18T23:30:34.849Z,2.30
2023-05-18T23:33:06.465Z,2.83
2023-05-18T23:35:38.092Z,3.13
2023-05-18T23:38:10.781Z,2.60
2023-05-18T23:40:41.692Z,2.30
2023-05-18T23:43:12.143Z,2.10
2023-05-18T23:45:48.434Z,2.50
2023-05-18T23:48:19.096Z,2.50
2023-05-18T23:50:50.581Z,2.70
2023-05-18T23:53:21.729Z,2.27
2023-05-18T23:55:52.790Z,2.33
2023-05-18T23:58:26.357Z,2.43
